createdAt,value
2018-12-29T00:00:57.444Z,101799.63
2018-12-29T00:02:01.574Z,101795.27
2018-12-29T00:03:05.809Z,101790.07
2018-12-29T00:04:09.998Z,101796.31
2018-12-29T00:05:14.132Z,101798.73
2018-12-29T00:06:18.427Z,101790.33
2018-12-29T00:07:22.687Z,101792.80
2018-12-29T00:08:26.737Z,101793.88
2018-12-29T00:09:30.851Z,101784.97
2018-12-29T00:10:34.962Z,101786.61
2018-12-29T00:11:39.084Z,101789.48
2018-12-29T00:12:43.218Z,101780.34
2018-12-29T00:13:47.327Z,101780.34
2018-12-29T00:14:54.932Z,101787.95
2018-12-29T00:15:55.718Z,101780.56
2018-12-29T00:16:59.959Z,101777.82
2018-12-29T00:18:04.080Z,101783.73
2018-12-29T00:19:08.226Z,101776.75
2018-12-29T00:20:12.295Z,101782.87
2018-12-29T00:21:16.351Z,101777.09
2018-12-29T00:22:20.597Z,101783.02
2018-12-29T00:23:24.703Z,101776.34
2018-12-29T00:24:28.833Z,101772.32
2018-12-29T00:25:33.274Z,101774.20
2018-12-29T00:26:37.430Z,101774.70
2018-12-29T00:27:41.598Z,101776.13
2018-12-29T00:28:45.661Z,101774.14
2018-12-29T00:29:49.805Z,101777.02
2018-12-29T00:30:53.870Z,101775.87
2018-12-29T00:31:57.965Z,101775.26
2018-12-29T00:33:02.078Z,101773.27
2018-12-29T00:34:06.126Z,101778.92
2018-12-29T00:35:10.301Z,101768.14
2018-12-29T00:36:14.471Z,101763.94
2018-12-29T00:37:18.652Z,101764.12
2018-12-29T00:38:22.747Z,101768.78
2018-12-29T00:39:26.781Z,101765.47
2018-12-29T00:40:30.798Z,101761.67
2018-12-29T00:41:34.894Z,101769.20
2018-12-29T00:42:38.980Z,101767.02
2018-12-29T00:43:43.148Z,101755.20
2018-12-29T00:44:47.168Z,101764.99
2018-12-29T00:45:51.255Z,101759.70
2018-12-29T00:46:55.307Z,101768.92
2018-12-29T00:47:59.436Z,101770.64
2018-12-29T00:49:03.557Z,101768.86
2018-12-29T00:50:07.767Z,101768.02
2018-12-29T00:51:11.850Z,101765.48
2018-12-29T00:52:15.930Z,101761.12
2018-12-29T00:53:20.039Z,101763.85
2018-12-29T00:54:24.239Z,101760.28
2018-12-29T00:55:28.254Z,101758.95
2018-12-29T00:56:32.322Z,101755.20
2018-12-29T00:57:36.351Z,101756.89
2018-12-29T00:58:40.490Z,101756.19
2018-12-29T00:59:44.570Z,101749.16
2018-12-29T01:00:48.655Z,101748.09
2018-12-29T01:01:52.784Z,101745.28
2018-12-29T01:02:56.856Z,101744.73
2018-12-29T01:04:01.015Z,101750.64
2018-12-29T01:05:05.588Z,101740.98
2018-12-29T01:06:09.946Z,101748.86
2018-12-29T01:07:14.329Z,101743.24
2018-12-29T01:08:18.377Z,101745.63
2018-12-29T01:09:22.472Z,101738.29
2018-12-29T01:10:26.656Z,101733.23
2018-12-29T01:11:30.707Z,101739.77
2018-12-29T01:12:34.826Z,101743.03
2018-12-29T01:13:38.944Z,101742.72
2018-12-29T01:14:43.144Z,101742.92
2018-12-29T01:15:47.378Z,101747.77
2018-12-29T01:16:51.458Z,101738.14
2018-12-29T01:17:55.521Z,101746.09
2018-12-29T01:18:59.689Z,101743.42
2018-12-29T01:20:03.914Z,101746.67
2018-12-29T01:21:08.074Z,101750.19
2018-12-29T01:22:12.152Z,101748.89
2018-12-29T01:23:16.344Z,101744.03
2018-12-29T01:24:20.446Z,101740.52
2018-12-29T01:25:24.691Z,101739.33
2018-12-29T01:26:28.741Z,101733.18
2018-12-29T01:27:32.852Z,101736.20
2018-12-29T01:28:37.060Z,101739.83
2018-12-29T01:29:41.218Z,101737.99
2018-12-29T01:30:45.348Z,101740.17
2018-12-29T01:31:49.541Z,101739.25
2018-12-29T01:32:53.585Z,101739.36
2018-12-29T01:33:57.618Z,101735.00
2018-12-29T01:35:01.710Z,101732.52
2018-12-29T01:36:05.886Z,101736.38
2018-12-29T01:37:10.167Z,101732.56
2018-12-29T01:38:14.647Z,101732.45
2018-12-29T01:39:19.215Z,101729.42
2018-12-29T01:40:23.467Z,101734.97
2018-12-29T01:41:30.838Z,101737.80
2018-12-29T01:42:34.910Z,101733.98
2018-12-29T01:43:39.239Z,101738.48
2018-12-29T01:44:43.545Z,101739.83
2018-12-29T01:45:47.867Z,101739.18
2018-12-29T01:46:52.464Z,101747.41
2018-12-29T01:47:56.594Z,101750.83
2018-12-29T01:49:01.025Z,101754.59
2018-12-29T01:50:05.590Z,101751.30
2018-12-29T01:51:09.748Z,101744.95
2018-12-29T01:52:13.954Z,101752.75
2018-12-29T01:53:18.428Z,101750.38
2018-12-29T01:54:22.896Z,101743.39
2018-12-29T01:55:27.011Z,101744.80
2018-12-29T01:56:31.579Z,101743.27
2018-12-29T01:57:36.070Z,101747.28
2018-12-29T01:58:40.398Z,101741.28
2018-12-29T01:59:44.919Z,101736.20
2018-12-29T02:00:49.079Z,101731.00
2018-12-29T02:01:53.430Z,101725.03
2018-12-29T02:02:57.876Z,101730.85
2018-12-29T02:04:02.373Z,101738.27
2018-12-29T02:05:07.010Z,101734.64
2018-12-29T02:06:11.150Z,101732.69
2018-12-29T02:07:15.333Z,101731.04
2018-12-29T02:08:19.479Z,101730.01
2018-12-29T02:09:23.577Z,101726.03
2018-12-29T02:10:27.706Z,101725.88
2018-12-29T02:11:31.754Z,101727.72
2018-12-29T02:12:35.859Z,101721.22
2018-12-29T02:13:39.925Z,101717.42
2018-12-29T02:14:44.044Z,101707.37
2018-12-29T02:15:48.289Z,101706.22
2018-12-29T02:16:52.469Z,101698.04
2018-12-29T02:17:56.489Z,101702.20
2018-12-29T02:19:00.686Z,101699.45
2018-12-29T02:20:05.347Z,101698.27
2018-12-29T02:21:09.403Z,101700.95
2018-12-29T02:22:13.630Z,101705.16
2018-12-29T02:23:17.699Z,101708.98
2018-12-29T02:24:22.178Z,101710.32
2018-12-29T02:25:26.630Z,101703.63
2018-12-29T02:26:31.091Z,101704.97
2018-12-29T02:27:35.414Z,101707.98
2018-12-29T02:28:39.866Z,101711.38
2018-12-29T02:29:44.145Z,101707.98
2018-12-29T02:30:48.572Z,101712.72
2018-12-29T02:31:52.924Z,101719.69
2018-12-29T02:32:57.336Z,101729.97
2018-12-29T02:34:01.633Z,101726.95
2018-12-29T02:35:05.972Z,101726.95
2018-12-29T02:36:10.325Z,101720.30
2018-12-29T02:37:14.653Z,101724.81
2018-12-29T02:38:18.969Z,101724.87
2018-12-29T02:39:23.320Z,101732.61
2018-12-29T02:40:27.639Z,101708.75
2018-12-29T02:41:32.028Z,101720.80
2018-12-29T02:42:36.446Z,101731.08
2018-12-29T02:43:40.702Z,101720.48
2018-12-29T02:44:45.060Z,101710.23
2018-12-29T02:45:49.518Z,101716.09
2018-12-29T02:46:53.846Z,101715.09
2018-12-29T02:47:57.860Z,101715.28
2018-12-29T02:49:02.172Z,101724.16
2018-12-29T02:50:06.820Z,101734.67
2018-12-29T02:51:11.668Z,101727.83
2018-12-29T02:52:15.673Z,101724.46
2018-12-29T02:53:19.830Z,101723.43
2018-12-29T02:54:23.860Z,101723.52
2018-12-29T02:55:27.926Z,101718.42
2018-12-29T02:56:32.050Z,101713.91
2018-12-29T02:57:36.119Z,101725.16
2018-12-29T02:58:40.342Z,101733.48
2018-12-29T02:59:44.384Z,101733.53
2018-12-29T03:00:48.472Z,101731.84
2018-12-29T03:01:52.558Z,101728.52
2018-12-29T03:02:56.653Z,101730.92
2018-12-29T03:04:00.796Z,101725.27
2018-12-29T03:05:05.284Z,101710.53
2018-12-29T03:06:09.639Z,101711.22
2018-12-29T03:07:13.916Z,101711.95
2018-12-29T03:08:18.302Z,101709.55
2018-12-29T03:09:22.616Z,101712.19
2018-12-29T03:10:27.135Z,101720.91
2018-12-29T03:11:31.424Z,101719.56
2018-12-29T03:12:35.753Z,101713.56
2018-12-29T03:13:40.253Z,101720.41
2018-12-29T03:14:44.641Z,101727.25
2018-12-29T03:15:49.140Z,101727.14
2018-12-29T03:16:53.369Z,101722.02
2018-12-29T03:17:57.480Z,101721.44
2018-12-29T03:19:01.576Z,101730.24
2018-12-29T03:20:05.631Z,101729.40
2018-12-29T03:21:09.698Z,101718.77
2018-12-29T03:22:14.096Z,101718.27
2018-12-29T03:23:18.611Z,101712.45
2018-12-29T03:24:23.013Z,101707.17
2018-12-29T03:25:27.314Z,101702.84
2018-12-29T03:26:31.851Z,101699.14
2018-12-29T03:27:36.318Z,101706.75
2018-12-29T03:28:40.685Z,101696.77
2018-12-29T03:29:45.181Z,101693.09
2018-12-29T03:30:49.674Z,101691.50
2018-12-29T03:31:53.982Z,101682.91
2018-12-29T03:32:58.406Z,101700.63
2018-12-29T03:34:02.505Z,101688.78
2018-12-29T03:35:07.138Z,101699.48
2018-12-29T03:36:11.198Z,101699.89
2018-12-29T03:37:15.343Z,101703.53
2018-12-29T03:38:19.391Z,101709.61
2018-12-29T03:39:23.561Z,101706.21
2018-12-29T03:40:27.642Z,101695.81
2018-12-29T03:41:31.738Z,101701.52
2018-12-29T03:42:35.831Z,101704.34
2018-12-29T03:43:39.999Z,101703.19
2018-12-29T03:44:44.146Z,101698.34
2018-12-29T03:45:49.270Z,101710.95
2018-12-29T03:46:52.518Z,101710.04
2018-12-29T03:47:56.612Z,101708.17
2018-12-29T03:49:00.604Z,101705.77
2018-12-29T03:50:04.947Z,101710.00
2018-12-29T03:51:09.093Z,101702.81
2018-12-29T03:52:13.346Z,101692.79
2018-12-29T03:53:17.472Z,101697.99
2018-12-29T03:54:21.554Z,101696.16
2018-12-29T03:55:26.028Z,101688.47
2018-12-29T03:56:30.398Z,101684.17
2018-12-29T03:57:34.525Z,101680.70
2018-12-29T03:58:38.819Z,101677.72
2018-12-29T03:59:42.864Z,101668.02
2018-12-29T04:00:46.979Z,101671.19
2018-12-29T04:01:50.975Z,101676.53
2018-12-29T04:02:55.158Z,101668.51
2018-12-29T04:03:59.234Z,101671.03
2018-12-29T04:05:03.270Z,101671.03
2018-12-29T04:06:07.398Z,101673.86
2018-12-29T04:07:11.471Z,101667.79
2018-12-29T04:08:15.491Z,101659.38
2018-12-29T04:09:30.853Z,101657.89
2018-12-29T04:10:35.236Z,101654.71
2018-12-29T04:11:39.606Z,101648.20
2018-12-29T04:12:46.674Z,101651.20
2018-12-29T04:13:50.885Z,101648.11
2018-12-29T04:14:55.330Z,101649.52
2018-12-29T04:15:59.500Z,101653.19
2018-12-29T04:17:03.839Z,101651.38
2018-12-29T04:18:07.952Z,101649.20
2018-12-29T04:19:12.009Z,101648.07
2018-12-29T04:20:16.062Z,101653.92
2018-12-29T04:21:20.058Z,101652.00
2018-12-29T04:22:24.190Z,101653.87
2018-12-29T04:23:28.336Z,101652.38
2018-12-29T04:24:32.342Z,101656.55
2018-12-29T04:25:36.405Z,101642.82
2018-12-29T04:26:40.395Z,101643.85
2018-12-29T04:27:44.452Z,101642.92
2018-12-29T04:28:48.545Z,101646.28
2018-12-29T04:29:52.547Z,101645.28
2018-12-29T04:30:56.682Z,101634.80
2018-12-29T04:32:00.788Z,101640.83
2018-12-29T04:33:04.923Z,101643.57
2018-12-29T04:34:09.023Z,101648.92
2018-12-29T04:35:13.215Z,101651.54
2018-12-29T04:36:17.242Z,101652.53
2018-12-29T04:37:21.329Z,101658.88
2018-12-29T04:38:25.400Z,101649.36
2018-12-29T04:39:29.484Z,101641.07
2018-12-29T04:40:33.593Z,101646.27
2018-12-29T04:41:37.720Z,101652.12
2018-12-29T04:42:41.740Z,101643.13
2018-12-29T04:43:45.807Z,101644.47
2018-12-29T04:44:49.891Z,101649.10
2018-12-29T04:45:54.718Z,101650.50
2018-12-29T04:46:58.735Z,101650.50
2018-12-29T04:48:02.829Z,101650.50
2018-12-29T04:49:06.958Z,101659.41
2018-12-29T04:50:10.965Z,101662.31
2018-12-29T04:51:15.071Z,101659.63
2018-12-29T04:52:19.126Z,101654.41
2018-12-29T04:53:23.154Z,101658.48
2018-12-29T04:54:27.243Z,101649.80
2018-12-29T04:55:31.287Z,101656.34
2018-12-29T04:56:35.306Z,101652.82
2018-12-29T04:57:39.364Z,101645.62
2018-12-29T04:58:43.321Z,101640.00
2018-12-29T04:59:47.395Z,101640.34
2018-12-29T05:00:51.393Z,101632.34
2018-12-29T05:01:55.481Z,101625.80
2018-12-29T05:02:59.871Z,101624.02
2018-12-29T05:04:04.268Z,101616.14
2018-12-29T05:05:08.566Z,101613.59
2018-12-29T05:06:12.989Z,101614.06
2018-12-29T05:07:17.274Z,101615.34
2018-12-29T05:08:21.606Z,101615.84
2018-12-29T05:09:26.057Z,101606.44
2018-12-29T05:10:30.358Z,101604.78
2018-12-29T05:11:34.723Z,101606.81
2018-12-29T05:12:38.901Z,101605.19
2018-12-29T05:13:42.958Z,101606.03
2018-12-29T05:14:47.015Z,101615.06
2018-12-29T05:15:51.078Z,101616.23
2018-12-29T05:16:55.131Z,101608.89
2018-12-29T05:17:59.210Z,101607.89
2018-12-29T05:19:03.291Z,101604.44
2018-12-29T05:20:07.354Z,101604.47
2018-12-29T05:21:11.480Z,101604.80
2018-12-29T05:22:15.508Z,101607.33
2018-12-29T05:23:19.572Z,101606.14
2018-12-29T05:24:23.708Z,101603.31
2018-12-29T05:25:27.902Z,101604.65
2018-12-29T05:26:32.019Z,101610.66
2018-12-29T05:27:36.005Z,101608.98
2018-12-29T05:28:40.334Z,101610.64
2018-12-29T05:29:44.708Z,101605.91
2018-12-29T05:30:49.028Z,101610.30
2018-12-29T05:31:53.364Z,101609.92
2018-12-29T05:32:57.731Z,101611.84
2018-12-29T05:34:02.157Z,101615.73
2018-12-29T05:35:06.503Z,101611.06
2018-12-29T05:36:10.563Z,101609.04
2018-12-29T05:37:14.707Z,101611.91
2018-12-29T05:38:18.733Z,101608.56
2018-12-29T05:39:22.856Z,101612.74
2018-12-29T05:40:26.907Z,101610.41
2018-12-29T05:41:30.932Z,101603.55
2018-12-29T05:42:35.108Z,101596.67
2018-12-29T05:43:39.601Z,101606.55
2018-12-29T05:44:43.697Z,101601.22
2018-12-29T05:45:47.802Z,101608.12
2018-12-29T05:46:51.945Z,101601.27
2018-12-29T05:47:56.264Z,101595.76
2018-12-29T05:49:00.400Z,101589.74
2018-12-29T05:50:04.747Z,101600.17
2018-12-29T05:51:08.802Z,101602.87
2018-12-29T05:52:12.889Z,101595.16
2018-12-29T05:53:17.148Z,101596.16
2018-12-29T05:54:21.148Z,101596.49
2018-12-29T05:55:25.205Z,101596.16
2018-12-29T05:56:29.248Z,101592.16
2018-12-29T05:57:33.369Z,101596.52
2018-12-29T05:58:37.447Z,101592.84
2018-12-29T05:59:41.495Z,101597.08
2018-12-29T06:00:45.560Z,101602.61
2018-12-29T06:01:49.811Z,101604.63
2018-12-29T06:02:53.839Z,101596.25
2018-12-29T06:03:57.973Z,101600.45
2018-12-29T06:05:02.013Z,101597.98
2018-12-29T06:06:06.065Z,101595.09
2018-12-29T06:07:10.086Z,101598.17
2018-12-29T06:08:14.192Z,101603.02
2018-12-29T06:09:18.255Z,101614.42
2018-12-29T06:10:22.313Z,101607.10
2018-12-29T06:11:26.445Z,101610.62
2018-12-29T06:12:30.600Z,101605.09
2018-12-29T06:13:34.705Z,101609.13
2018-12-29T06:14:38.860Z,101606.78
2018-12-29T06:15:42.987Z,101603.70
2018-12-29T06:16:47.033Z,101599.40
2018-12-29T06:17:51.266Z,101597.56
2018-12-29T06:18:58.393Z,101590.65
2018-12-29T06:20:02.561Z,101581.14
2018-12-29T06:21:06.619Z,101593.04
2018-12-29T06:22:10.668Z,101589.70
2018-12-29T06:23:14.709Z,101584.00
2018-12-29T06:24:18.906Z,101577.96
2018-12-29T06:25:23.036Z,101567.74
2018-12-29T06:26:27.272Z,101577.30
2018-12-29T06:27:31.359Z,101573.73
2018-12-29T06:28:35.473Z,101567.74
2018-12-29T06:29:39.486Z,101569.42
2018-12-29T06:30:43.631Z,101571.59
2018-12-29T06:31:47.720Z,101570.94
2018-12-29T06:32:51.859Z,101579.16
2018-12-29T06:33:55.990Z,101567.59
2018-12-29T06:35:00.227Z,101556.71
2018-12-29T06:36:04.384Z,101554.03
2018-12-29T06:37:08.515Z,101556.20
2018-12-29T06:38:12.777Z,101550.00
2018-12-29T06:39:16.896Z,101550.52
2018-12-29T06:40:22.385Z,101554.88
2018-12-29T06:41:25.193Z,101554.88
2018-12-29T06:42:29.311Z,101551.56
2018-12-29T06:43:33.409Z,101549.22
2018-12-29T06:44:37.470Z,101548.88
2018-12-29T06:45:41.500Z,101544.36
2018-12-29T06:46:45.596Z,101542.02
2018-12-29T06:47:49.669Z,101544.20
2018-12-29T06:48:53.730Z,101543.86
2018-12-29T06:49:57.919Z,101539.67
2018-12-29T06:51:02.037Z,101543.36
2018-12-29T06:52:06.127Z,101540.18
2018-12-29T06:53:10.323Z,101542.86
2018-12-29T06:54:14.349Z,101540.86
2018-12-29T06:55:18.406Z,101542.41
2018-12-29T06:56:22.476Z,101537.84
2018-12-29T06:57:26.579Z,101544.21
2018-12-29T06:58:30.567Z,101543.92
2018-12-29T06:59:34.604Z,101549.28
2018-12-29T07:00:38.698Z,101546.77
2018-12-29T07:01:42.733Z,101550.90
2018-12-29T07:02:46.903Z,101553.73
2018-12-29T07:03:50.889Z,101555.58
2018-12-29T07:04:55.006Z,101560.61
2018-12-29T07:05:59.026Z,101559.89
2018-12-29T07:07:03.281Z,101566.47
2018-12-29T07:08:07.468Z,101567.98
2018-12-29T07:09:11.600Z,101567.30
2018-12-29T07:10:15.721Z,101569.48
2018-12-29T07:11:19.759Z,101574.69
2018-12-29T07:12:23.865Z,101569.82
2018-12-29T07:13:30.391Z,101568.59
2018-12-29T07:14:34.746Z,101571.28
2018-12-29T07:15:39.124Z,101572.12
2018-12-29T07:16:43.501Z,101575.30
2018-12-29T07:17:48.820Z,101577.98
2018-12-29T07:18:53.179Z,101578.31
2018-12-29T07:19:58.096Z,101586.36
2018-12-29T07:21:02.513Z,101578.81
2018-12-29T07:22:06.658Z,101590.36
2018-12-29T07:23:10.897Z,101588.36
2018-12-29T07:24:15.006Z,101597.42
2018-12-29T07:25:19.176Z,101591.20
2018-12-29T07:26:23.274Z,101586.36
2018-12-29T07:27:27.343Z,101589.70
2018-12-29T07:28:31.454Z,101587.84
2018-12-29T07:29:38.322Z,101588.63
2018-12-29T07:30:39.690Z,101585.28
2018-12-29T07:31:43.716Z,101584.95
2018-12-29T07:32:47.670Z,101585.27
2018-12-29T07:33:51.722Z,101567.85
2018-12-29T07:34:55.868Z,101582.92
2018-12-29T07:35:59.978Z,101582.91
2018-12-29T07:37:06.986Z,101590.29
2018-12-29T07:38:11.035Z,101586.55
2018-12-29T07:39:15.128Z,101590.58
2018-12-29T07:40:19.109Z,101598.67
2018-12-29T07:41:23.233Z,101590.63
2018-12-29T07:42:27.516Z,101596.37
2018-12-29T07:43:31.602Z,101588.63
2018-12-29T07:44:35.766Z,101595.40
2018-12-29T07:45:39.861Z,101590.72
2018-12-29T07:46:49.569Z,101589.70
2018-12-29T07:47:48.314Z,101594.28
2018-12-29T07:48:52.388Z,101596.97
2018-12-29T07:49:56.551Z,101597.08
2018-12-29T07:51:00.720Z,101595.79
2018-12-29T07:52:04.797Z,101602.83
2018-12-29T07:53:09.038Z,101601.98
2018-12-29T07:54:13.167Z,101600.66
2018-12-29T07:55:17.257Z,101599.83
2018-12-29T07:56:21.399Z,101602.50
2018-12-29T07:57:25.501Z,101582.38
2018-12-29T07:58:29.671Z,101585.77
2018-12-29T07:59:33.854Z,101589.49
2018-12-29T08:00:38.003Z,101587.15
2018-12-29T08:01:42.136Z,101598.20
2018-12-29T08:02:46.302Z,101598.53
2018-12-29T08:03:50.576Z,101603.23
2018-12-29T08:04:55.143Z,101596.53
2018-12-29T08:05:59.586Z,101597.21
2018-12-29T08:07:04.013Z,101598.89
2018-12-29T08:08:08.439Z,101598.59
2018-12-29T08:09:12.910Z,101594.91
2018-12-29T08:10:17.365Z,101604.98
2018-12-29T08:11:21.676Z,101601.30
2018-12-29T08:12:26.072Z,101596.98
2018-12-29T08:13:30.453Z,101599.79
2018-12-29T08:14:34.747Z,101595.27
2018-12-29T08:15:39.536Z,101591.95
2018-12-29T08:16:43.986Z,101589.79
2018-12-29T08:17:48.423Z,101587.95
2018-12-29T08:18:53.053Z,101591.47
2018-12-29T08:19:57.674Z,101592.64
2018-12-29T08:21:02.318Z,101590.63
2018-12-29T08:22:07.097Z,101585.10
2018-12-29T08:23:11.737Z,101591.84
2018-12-29T08:24:16.414Z,101590.69
2018-12-29T08:25:20.798Z,101592.02
2018-12-29T08:26:25.631Z,101584.80
2018-12-29T08:27:30.303Z,101596.72
2018-12-29T08:28:35.121Z,101596.09
2018-12-29T08:29:39.795Z,101599.11
2018-12-29T08:30:44.467Z,101600.28
2018-12-29T08:31:49.278Z,101599.45
2018-12-29T08:32:53.854Z,101595.77
2018-12-29T08:33:58.492Z,101589.56
2018-12-29T08:35:03.018Z,101583.02
2018-12-29T08:36:07.581Z,101592.08
2018-12-29T08:37:12.028Z,101588.39
2018-12-29T08:38:16.358Z,101588.55
2018-12-29T08:39:20.477Z,101593.46
2018-12-29T08:40:24.656Z,101585.71
2018-12-29T08:41:28.674Z,101583.07
2018-12-29T08:42:32.967Z,101582.73
2018-12-29T08:43:37.303Z,101588.61
2018-12-29T08:44:41.728Z,101590.45
2018-12-29T08:45:46.365Z,101596.83
2018-12-29T08:46:50.996Z,101592.30
2018-12-29T08:47:55.492Z,101594.81
2018-12-29T08:48:59.806Z,101593.98
2018-12-29T08:50:04.278Z,101598.84
2018-12-29T08:51:08.693Z,101593.64
2018-12-29T08:52:13.236Z,101602.58
2018-12-29T08:53:17.797Z,101608.11
2018-12-29T08:54:22.277Z,101608.55
2018-12-29T08:55:27.058Z,101609.19
2018-12-29T08:56:31.707Z,101606.38
2018-12-29T08:57:35.904Z,101606.88
2018-12-29T08:58:40.054Z,101612.97
2018-12-29T08:59:44.565Z,101610.78
2018-12-29T09:00:48.840Z,101608.27
2018-12-29T09:01:53.143Z,101607.27
2018-12-29T09:02:57.483Z,101614.66
2018-12-29T09:04:01.830Z,101606.61
2018-12-29T09:05:06.215Z,101602.24
2018-12-29T09:06:10.437Z,101609.28
2018-12-29T09:07:14.713Z,101600.90
2018-12-29T09:08:18.922Z,101598.42
2018-12-29T09:09:23.237Z,101595.37
2018-12-29T09:10:27.774Z,101586.48
2018-12-29T09:11:32.052Z,101597.26
2018-12-29T09:12:36.284Z,101600.14
2018-12-29T09:13:40.549Z,101600.98
2018-12-29T09:14:44.852Z,101606.69
2018-12-29T09:15:49.400Z,101605.34
2018-12-29T09:16:53.559Z,101590.89
2018-12-29T09:17:57.735Z,101611.56
2018-12-29T09:19:01.976Z,101620.15
2018-12-29T09:20:06.841Z,101621.49
2018-12-29T09:21:11.047Z,101612.60
2018-12-29T09:22:15.436Z,101618.17
2018-12-29T09:23:19.899Z,101614.16
2018-12-29T09:24:24.124Z,101616.17
2018-12-29T09:25:28.352Z,101614.66
2018-12-29T09:26:32.620Z,101622.08
2018-12-29T09:27:36.942Z,101622.08
2018-12-29T09:28:44.095Z,101609.42
2018-12-29T09:29:48.265Z,101622.55
2018-12-29T09:30:52.518Z,101622.88
2018-12-29T09:31:56.617Z,101622.03
2018-12-29T09:33:01.186Z,101625.90
2018-12-29T09:34:05.627Z,101626.57
2018-12-29T09:35:10.310Z,101626.87
2018-12-29T09:36:16.314Z,101625.23
2018-12-29T09:37:20.630Z,101625.86
2018-12-29T09:38:25.064Z,101626.40
2018-12-29T09:39:29.316Z,101626.91
2018-12-29T09:40:33.875Z,101633.95
2018-12-29T09:41:38.302Z,101617.34
2018-12-29T09:42:42.828Z,101632.66
2018-12-29T09:43:47.809Z,101633.78
2018-12-29T09:44:52.143Z,101624.52
2018-12-29T09:45:56.419Z,101631.47
2018-12-29T09:47:00.802Z,101627.62
2018-12-29T09:48:04.977Z,101629.66
2018-12-29T09:49:09.147Z,101636.38
2018-12-29T09:50:13.244Z,101631.05
2018-12-29T09:51:17.797Z,101627.69
2018-12-29T09:52:21.871Z,101623.66
2018-12-29T09:53:25.922Z,101621.14
2018-12-29T09:54:30.051Z,101609.89
2018-12-29T09:55:34.863Z,101621.34
2018-12-29T09:56:38.919Z,101628.05
2018-12-29T09:57:43.279Z,101618.17
2018-12-29T09:58:47.343Z,101615.65
2018-12-29T09:59:51.517Z,101619.20
2018-12-29T10:00:55.636Z,101616.02
2018-12-29T10:02:00.039Z,101617.02
2018-12-29T10:03:04.231Z,101611.98
2018-12-29T10:04:08.499Z,101616.20
2018-12-29T10:05:12.578Z,101614.02
2018-12-29T10:06:17.132Z,101606.44
2018-12-29T10:07:21.496Z,101611.17
2018-12-29T10:08:25.972Z,101616.03
2018-12-29T10:09:30.443Z,101616.03
2018-12-29T10:10:36.532Z,101613.20
2018-12-29T10:11:39.388Z,101606.65
2018-12-29T10:12:43.616Z,101607.66
2018-12-29T10:13:47.829Z,101602.94
2018-12-29T10:14:52.173Z,101605.66
2018-12-29T10:15:56.432Z,101604.98
2018-12-29T10:17:00.556Z,101616.75
2018-12-29T10:18:04.761Z,101610.36
2018-12-29T10:19:08.945Z,101611.53
2018-12-29T10:20:13.323Z,101606.83
2018-12-29T10:21:20.841Z,101605.98
2018-12-29T10:22:25.119Z,101607.18
2018-12-29T10:23:29.262Z,101605.14
2018-12-29T10:24:33.482Z,101607.83
2018-12-29T10:25:37.812Z,101603.64
2018-12-29T10:26:42.013Z,101603.14
2018-12-29T10:27:46.174Z,101603.46
2018-12-29T10:28:50.317Z,101603.95
2018-12-29T10:29:54.584Z,101602.95
2018-12-29T10:30:58.628Z,101595.91
2018-12-29T10:32:02.823Z,101590.88
2018-12-29T10:33:07.018Z,101596.59
2018-12-29T10:34:11.284Z,101594.58
2018-12-29T10:35:15.418Z,101589.86
2018-12-29T10:36:19.497Z,101588.03
2018-12-29T10:37:23.618Z,101590.56
2018-12-29T10:38:28.666Z,101584.17
2018-12-29T10:39:32.790Z,101583.50
2018-12-29T10:40:36.963Z,101585.84
2018-12-29T10:41:41.166Z,101590.20
2018-12-29T10:42:45.301Z,101585.84
2018-12-29T10:43:49.347Z,101583.84
2018-12-29T10:44:53.496Z,101583.84
2018-12-29T10:45:58.342Z,101581.46
2018-12-29T10:47:02.954Z,101582.14
2018-12-29T10:48:07.543Z,101584.85
2018-12-29T10:49:12.099Z,101571.91
2018-12-29T10:50:16.684Z,101579.80
2018-12-29T10:51:21.309Z,101576.27
2018-12-29T10:52:25.822Z,101579.95
2018-12-29T10:53:29.956Z,101575.24
2018-12-29T10:54:34.189Z,101579.78
2018-12-29T10:55:38.805Z,101575.77
2018-12-29T10:56:43.462Z,101576.61
2018-12-29T10:57:48.342Z,101572.39
2018-12-29T10:58:52.754Z,101573.06
2018-12-29T10:59:56.863Z,101568.37
2018-12-29T11:01:01.292Z,101567.70
2018-12-29T11:02:05.680Z,101566.34
2018-12-29T11:03:10.022Z,101561.30
2018-12-29T11:04:14.546Z,101563.46
2018-12-29T11:05:18.805Z,101559.77
2018-12-29T11:06:23.043Z,101560.95
2018-12-29T11:07:27.308Z,101553.55
2018-12-29T11:08:32.988Z,101557.91
2018-12-29T11:09:36.483Z,101560.58
2018-12-29T11:10:41.005Z,101553.20
2018-12-29T11:11:45.392Z,101559.59
2018-12-29T11:12:49.921Z,101560.59
2018-12-29T11:13:54.115Z,101559.73
2018-12-29T11:14:58.260Z,101563.62
2018-12-29T11:16:02.530Z,101555.19
2018-12-29T11:17:07.223Z,101564.25
2018-12-29T11:18:11.479Z,101562.25
2018-12-29T11:19:16.734Z,101566.11
2018-12-29T11:20:20.854Z,101559.37
2018-12-29T11:21:24.887Z,101560.56
2018-12-29T11:22:29.308Z,101568.81
2018-12-29T11:23:33.767Z,101571.69
2018-12-29T11:24:38.716Z,101567.98
2018-12-29T11:25:43.236Z,101562.94
2018-12-29T11:26:48.138Z,101559.25
2018-12-29T11:27:52.429Z,101566.64
2018-12-29T11:28:56.537Z,101556.23
2018-12-29T11:30:00.716Z,101563.12
2018-12-29T11:31:05.126Z,101559.92
2018-12-29T11:32:09.302Z,101558.76
2018-12-29T11:33:13.437Z,101555.89
2018-12-29T11:34:17.587Z,101550.84
2018-12-29T11:35:28.509Z,101547.80
2018-12-29T11:36:26.213Z,101548.13
2018-12-29T11:37:30.268Z,101549.80
2018-12-29T11:38:34.416Z,101546.97
2018-12-29T11:39:38.625Z,101549.81
2018-12-29T11:40:42.724Z,101550.47
2018-12-29T11:41:46.927Z,101553.16
2018-12-29T11:42:51.074Z,101560.22
2018-12-29T11:43:55.127Z,101555.70
2018-12-29T11:44:59.323Z,101564.09
2018-12-29T11:46:03.471Z,101562.95
2018-12-29T11:47:07.783Z,101562.63
2018-12-29T11:48:13.187Z,101560.61
2018-12-29T11:49:18.190Z,101559.92
2018-12-29T11:50:21.477Z,101558.24
2018-12-29T11:51:25.728Z,101553.91
2018-12-29T11:52:30.123Z,101555.56
2018-12-29T11:53:34.592Z,101549.35
2018-12-29T11:54:39.707Z,101548.48
2018-12-29T11:55:44.857Z,101547.83
2018-12-29T11:56:49.028Z,101546.99
2018-12-29T11:57:53.450Z,101544.30
2018-12-29T11:58:57.619Z,101546.84
2018-12-29T12:00:01.651Z,101550.86
2018-12-29T12:01:05.890Z,101551.22
2018-12-29T12:02:09.975Z,101557.94
2018-12-29T12:03:14.222Z,101559.46
2018-12-29T12:04:18.426Z,101560.13
2018-12-29T12:05:22.650Z,101561.31
2018-12-29T12:06:26.814Z,101564.66
2018-12-29T12:07:30.936Z,101561.99
2018-12-29T12:08:35.095Z,101570.72
2018-12-29T12:09:39.202Z,101570.70
2018-12-29T12:10:43.345Z,101574.06
2018-12-29T12:11:47.431Z,101574.73
2018-12-29T12:12:51.497Z,101567.19
2018-12-29T12:13:55.712Z,101567.37